sensor_id;sensor_type;location;lat;lon;timestamp;P1;durP1;ratioP1;P2;durP2;ratioP2
30519;SDS011;17300;50.374;8.006;2022-08-24T00:00:27;2.60;;;2.40;;
30519;SDS011;17300;50.374;8.006;2022-08-24T00:02:54;2.20;;;2.00;;
30519;SDS011;17300;50.374;8.006;2022-08-24T00:05:21;2.20;;;2.00;;
30519;SDS011;17300;50.374;8.006;2022-08-24T00:07:48;3.30;;;2.10;;
30519;SDS011;17300;50.374;8.006;2022-08-24T00:10:16;2.90;;;2.33;;
30519;SDS011;17300;50.374;8.006;2022-08-24T00:12:44;2.23;;;2.07;;
30519;SDS011;17300;50.374;8.006;2022-08-24T00:15:12;2.20;;;2.00;;
30519;SDS011;17300;50.374;8.006;2022-08-24T00:17:42;2.37;;;2.17;;
30519;SDS011;17300;50.374;8.006;2022-08-24T00:20:10;2.20;;;2.00;;
30519;SDS011;17300;50.374;8.006;2022-08-24T00:22:38;2.47;;;2.10;;
30519;SDS011;17300;50.374;8.006;2022-08-24T00:25:05;2.57;;;2.37;;
30519;SDS011;17300;50.374;8.006;2022-08-24T00:27:33;2.53;;;2.33;;
30519;SDS011;17300;50.374;8.006;2022-08-24T00:30:01;1.83;;;1.73;;
30519;SDS011;17300;50.374;8.006;2022-08-24T00:32:29;2.73;;;2.00;;
30519;SDS011;17300;50.374;8.006;2022-08-24T00:34:57;2.30;;;2.10;;
30519;SDS011;17300;50.374;8.006;2022-08-24T00:37:24;2.43;;;2.23;;
30519;SDS011;17300;50.374;8.006;2022-08-24T00:39:51;2.93;;;2.07;;
30519;SDS011;17300;50.374;8.006;2022-08-24T00:42:18;2.30;;;2.10;;
30519;SDS011;17300;50.374;8.006;2022-08-24T00:44:44;2.20;;;2.10;;
30519;SDS011;17300;50.374;8.006;2022-08-24T00:47:13;2.50;;;2.30;;
30519;SDS011;17300;50.374;8.006;2022-08-24T00:49:45;3.17;;;2.13;;
30519;SDS011;17300;50.374;8.006;2022-08-24T00:52:22;5.13;;;2.40;;
30519;SDS011;17300;50.374;8.006;2022-08-24T00:54:54;2.47;;;2.27;;
30519;SDS011;17300;50.374;8.006;2022-08-24T00:57:26;2.40;;;2.20;;
30519;SDS011;17300;50.374;8.006;2022-08-24T00:59:59;2.30;;;2.10;;
30519;SDS011;17300;50.374;8.006;2022-08-24T01:02:31;2.10;;;1.90;;
30519;SDS011;17300;50.374;8.006;2022-08-24T01:05:01;2.10;;;1.90;;
30519;SDS011;17300;50.374;8.006;2022-08-24T01:07:33;2.10;;;2.00;;
30519;SDS011;17300;50.374;8.006;2022-08-24T01:10:02;2.60;;;2.40;;
30519;SDS011;17300;50.374;8.006;2022-08-24T01:12:32;2.50;;;2.30;;
30519;SDS011;17300;50.374;8.006;2022-08-24T01:15:01;2.27;;;2.07;;
30519;SDS011;17300;50.374;8.006;2022-08-24T01:17:30;3.20;;;2.27;;
30519;SDS011;17300;50.374;8.006;2022-08-24T01:20:14;3.10;;;2.47;;
30519;SDS011;17300;50.374;8.006;2022-08-24T01:22:51;2.77;;;2.03;;
30519;SDS011;17300;50.374;8.006;2022-08-24T01:25:26;2.60;;;2.40;;
30519;SDS011;17300;50.374;8.006;2022-08-24T01:27:55;2.57;;;2.37;;
30519;SDS011;17300;50.374;8.006;2022-08-24T01:30:25;2.57;;;2.37;;
30519;SDS011;17300;50.374;8.006;2022-08-24T01:32:54;2.43;;;2.03;;
30519;SDS011;17300;50.374;8.006;2022-08-24T01:35:23;2.20;;;2.00;;
30519;SDS011;17300;50.374;8.006;2022-08-24T01:37:50;2.40;;;2.20;;
30519;SDS011;17300;50.374;8.006;2022-08-24T01:40:19;2.83;;;2.50;;
30519;SDS011;17300;50.374;8.006;2022-08-24T01:42:48;2.00;;;1.90;;
30519;SDS011;17300;50.374;8.006;2022-08-24T01:45:18;2.43;;;2.23;;
30519;SDS011;17300;50.374;8.006;2022-08-24T01:47:45;2.37;;;2.17;;
30519;SDS011;17300;50.374;8.006;2022-08-24T01:50:12;2.90;;;2.60;;
30519;SDS011;17300;50.374;8.006;2022-08-24T01:52:40;3.37;;;2.10;;
30519;SDS011;17300;50.374;8.006;2022-08-24T01:55:09;2.47;;;2.27;;
30519;SDS011;17300;50.374;8.006;2022-08-24T01:57:38;2.83;;;2.60;;
30519;SDS011;17300;50.374;8.006;2022-08-24T02:00:08;2.50;;;2.30;;
30519;SDS011;17300;50.374;8.006;2022-08-24T02:02:39;2.30;;;2.10;;
30519;SDS011;17300;50.374;8.006;2022-08-24T02:05:07;2.50;;;2.30;;
30519;SDS011;17300;50.374;8.006;2022-08-24T02:07:34;1.83;;;1.73;;
30519;SDS011;17300;50.374;8.006;2022-08-24T02:10:01;3.43;;;2.47;;
30519;SDS011;17300;50.374;8.006;2022-08-24T02:12:28;3.87;;;2.37;;
30519;SDS011;17300;50.374;8.006;2022-08-24T02:14:54;2.90;;;2.27;;
30519;SDS011;17300;50.374;8.006;2022-08-24T02:17:22;2.50;;;2.30;;
30519;SDS011;17300;50.374;8.006;2022-08-24T02:19:49;2.47;;;2.27;;
30519;SDS011;17300;50.374;8.006;2022-08-24T02:22:16;2.10;;;1.90;;
30519;SDS011;17300;50.374;8.006;2022-08-24T02:24:43;2.43;;;2.23;;
30519;SDS011;17300;50.374;8.006;2022-08-24T02:27:10;1.97;;;1.87;;
30519;SDS011;17300;50.374;8.006;2022-08-24T02:29:40;3.07;;;2.40;;
30519;SDS011;17300;50.374;8.006;2022-08-24T02:32:07;2.50;;;2.30;;
30519;SDS011;17300;50.374;8.006;2022-08-24T02:34:36;2.67;;;2.47;;
30519;SDS011;17300;50.374;8.006;2022-08-24T02:37:03;2.40;;;2.20;;
30519;SDS011;17300;50.374;8.006;2022-08-24T02:39:30;2.00;;;1.90;;
30519;SDS011;17300;50.374;8.006;2022-08-24T02:41:57;1.90;;;1.80;;
30519;SDS011;17300;50.374;8.006;2022-08-24T02:44:24;2.50;;;2.30;;
30519;SDS011;17300;50.374;8.006;2022-08-24T02:46:50;2.30;;;2.10;;
30519;SDS011;17300;50.374;8.006;2022-08-24T02:49:17;2.40;;;2.20;;
30519;SDS011;17300;50.374;8.006;2022-08-24T02:51:46;2.50;;;2.30;;
30519;SDS011;17300;50.374;8.006;2022-08-24T02:54:13;3.40;;;2.17;;
30519;SDS011;17300;50.374;8.006;2022-08-24T02:56:41;3.10;;;2.20;;
30519;SDS011;17300;50.374;8.006;2022-08-24T02:59:08;2.30;;;2.10;;
30519;SDS011;17300;50.374;8.006;2022-08-24T03:01:35;2.33;;;2.07;;
30519;SDS011;17300;50.374;8.006;2022-08-24T03:04:02;2.37;;;2.10;;
30519;SDS011;17300;50.374;8.006;2022-08-24T03:06:29;3.23;;;2.60;;
30519;SDS011;17300;50.374;8.006;2022-08-24T03:08:58;3.57;;;2.70;;
30519;SDS011;17300;50.374;8.006;2022-08-24T03:11:25;2.30;;;2.20;;
30519;SDS011;17300;50.374;8.006;2022-08-24T03:13:51;2.37;;;2.20;;
30519;SDS011;17300;50.374;8.006;2022-08-24T03:16:19;2.47;;;2.27;;
30519;SDS011;17300;50.374;8.006;2022-08-24T03:18:46;2.73;;;2.40;;
30519;SDS011;17300;50.374;8.006;2022-08-24T03:21:13;2.50;;;2.30;;
30519;SDS011;17300;50.374;8.006;2022-08-24T03:23:40;2.53;;;2.00;;
30519;SDS011;17300;50.374;8.006;2022-08-24T03:26:08;2.77;;;2.53;;
30519;SDS011;17300;50.374;8.006;2022-08-24T03:28:35;2.67;;;2.47;;
30519;SDS011;17300;50.374;8.006;2022-08-24T03:31:02;2.50;;;2.30;;
30519;SDS011;17300;50.374;8.006;2022-08-24T03:33:29;2.60;;;2.40;;
30519;SDS011;17300;50.374;8.006;2022-08-24T03:35:55;2.33;;;2.13;;
30519;SDS011;17300;50.374;8.006;2022-08-24T03:38:22;2.43;;;2.23;;
30519;SDS011;17300;50.374;8.006;2022-08-24T03:40:50;2.73;;;2.53;;
30519;SDS011;17300;50.374;8.006;2022-08-24T03:43:18;2.90;;;2.00;;
30519;SDS011;17300;50.374;8.006;2022-08-24T03:45:59;2.50;;;2.30;;
30519;SDS011;17300;50.374;8.006;2022-08-24T03:48:27;3.17;;;2.27;;
30519;SDS011;17300;50.374;8.006;2022-08-24T03:50:54;2.40;;;2.20;;
30519;SDS011;17300;50.374;8.006;2022-08-24T03:53:21;2.47;;;2.27;;
30519;SDS011;17300;50.374;8.006;2022-08-24T03:55:48;3.80;;;2.70;;
30519;SDS011;17300;50.374;8.006;2022-08-24T03:58:15;2.43;;;2.23;;
30519;SDS011;17300;50.374;8.006;2022-08-24T04:00:43;2.60;;;2.40;;
30519;SDS011;17300;50.374;8.006;2022-08-24T04:03:11;2.67;;;2.47;;
30519;SDS011;17300;50.374;8.006;2022-08-24T04:05:38;2.90;;;2.50;;
30519;SDS011;17300;50.374;8.006;2022-08-24T04:08:07;2.83;;;2.50;;
30519;SDS011;17300;50.374;8.006;2022-08-24T04:10:34;2.47;;;2.27;;
30519;SDS011;17300;50.374;8.006;2022-08-24T04:13:01;2.70;;;2.50;;
30519;SDS011;17300;50.374;8.006;2022-08-24T04:15:27;2.60;;;2.33;;
30519;SDS011;17300;50.374;8.006;2022-08-24T04:17:57;2.50;;;2.30;;
30519;SDS011;17300;50.374;8.006;2022-08-24T04:20:23;2.57;;;2.37;;
30519;SDS011;17300;50.374;8.006;2022-08-24T04:22:50;2.70;;;2.40;;
30519;SDS011;17300;50.374;8.006;2022-08-24T04:25:17;3.03;;;2.60;;
30519;SDS011;17300;50.374;8.006;2022-08-24T04:27:44;3.27;;;2.70;;
30519;SDS011;17300;50.374;8.006;2022-08-24T04:30:11;2.80;;;2.60;;
30519;SDS011;17300;50.374;8.006;2022-08-24T04:32:39;2.47;;;2.27;;
30519;SDS011;17300;50.374;8.006;2022-08-24T04:35:08;2.50;;;2.30;;
30519;SDS011;17300;50.374;8.006;2022-08-24T04:37:35;2.50;;;2.30;;
30519;SDS011;17300;50.374;8.006;2022-08-24T04:40:03;2.57;;;2.30;;
30519;SDS011;17300;50.374;8.006;2022-08-24T04:42:31;2.73;;;2.53;;
30519;SDS011;17300;50.374;8.006;2022-08-24T04:44:58;2.73;;;2.53;;
30519;SDS011;17300;50.374;8.006;2022-08-24T04:47:25;2.43;;;2.23;;
30519;SDS011;17300;50.374;8.006;2022-08-24T04:49:51;3.60;;;2.60;;
30519;SDS011;17300;50.374;8.006;2022-08-24T04:52:20;3.30;;;2.50;;
30519;SDS011;17300;50.374;8.006;2022-08-24T04:54:46;2.90;;;2.60;;
30519;SDS011;17300;50.374;8.006;2022-08-24T04:57:13;3.20;;;2.90;;
30519;SDS011;17300;50.374;8.006;2022-08-24T04:59:40;2.73;;;2.53;;
30519;SDS011;17300;50.374;8.006;2022-08-24T05:02:07;2.97;;;2.50;;
30519;SDS011;17300;50.374;8.006;2022-08-24T05:04:34;2.70;;;2.50;;
30519;SDS011;17300;50.374;8.006;2022-08-24T05:07:02;2.50;;;2.30;;
30519;SDS011;17300;50.374;8.006;2022-08-24T05:09:30;2.43;;;2.30;;
30519;SDS011;17300;50.374;8.006;2022-08-24T05:11:57;2.60;;;2.40;;
30519;SDS011;17300;50.374;8.006;2022-08-24T05:14:23;3.20;;;2.90;;
30519;SDS011;17300;50.374;8.006;2022-08-24T05:16:52;2.50;;;2.30;;
30519;SDS011;17300;50.374;8.006;2022-08-24T05:19:19;2.83;;;2.60;;
30519;SDS011;17300;50.374;8.006;2022-08-24T05:21:47;2.73;;;2.47;;
30519;SDS011;17300;50.374;8.006;2022-08-24T05:24:14;3.60;;;2.60;;
30519;SDS011;17300;50.374;8.006;2022-08-24T05:26:42;3.00;;;2.80;;
30519;SDS011;17300;50.374;8.006;2022-08-24T05:29:09;2.87;;;2.40;;
30519;SDS011;17300;50.374;8.006;2022-08-24T05:31:36;2.93;;;2.50;;
30519;SDS011;17300;50.374;8.006;2022-08-24T05:34:03;2.47;;;2.27;;
30519;SDS011;17300;50.374;8.006;2022-08-24T05:36:31;2.70;;;2.50;;
30519;SDS011;17300;50.374;8.006;2022-08-24T05:39:01;3.00;;;2.70;;
30519;SDS011;17300;50.374;8.006;2022-08-24T05:41:29;2.70;;;2.50;;
30519;SDS011;17300;50.374;8.006;2022-08-24T05:43:57;2.40;;;2.20;;
30519;SDS011;17300;50.374;8.006;2022-08-24T05:46:25;2.50;;;2.30;;
30519;SDS011;17300;50.374;8.006;2022-08-24T05:48:52;3.27;;;2.97;;
30519;SDS011;17300;50.374;8.006;2022-08-24T05:51:19;2.60;;;2.40;;
30519;SDS011;17300;50.374;8.006;2022-08-24T05:53:46;2.90;;;2.60;;
30519;SDS011;17300;50.374;8.006;2022-08-24T05:56:14;2.97;;;2.67;;
30519;SDS011;17300;50.374;8.006;2022-08-24T05:58:42;2.70;;;2.40;;
30519;SDS011;17300;50.374;8.006;2022-08-24T06:01:12;3.63;;;2.60;;
30519;SDS011;17300;50.374;8.006;2022-08-24T06:03:40;2.67;;;2.47;;
30519;SDS011;17300;50.374;8.006;2022-08-24T06:06:09;2.60;;;2.40;;
30519;SDS011;17300;50.374;8.006;2022-08-24T06:08:38;2.42;;;2.22;;
30519;SDS011;17300;50.374;8.006;2022-08-24T06:11:06;2.45;;;2.25;;
30519;SDS011;17300;50.374;8.006;2022-08-24T06:13:33;2.67;;;2.42;;
30519;SDS011;17300;50.374;8.006;2022-08-24T06:16:04;2.70;;;2.50;;
30519;SDS011;17300;50.374;8.006;2022-08-24T06:18:33;2.67;;;2.47;;
30519;SDS011;17300;50.374;8.006;2022-08-24T06:21:02;2.83;;;2.63;;
30519;SDS011;17300;50.374;8.006;2022-08-24T06:23:31;2.55;;;2.35;;
30519;SDS011;17300;50.374;8.006;2022-08-24T06:25:58;3.67;;;2.60;;
30519;SDS011;17300;50.374;8.006;2022-08-24T06:28:43;3.97;;;2.83;;
30519;SDS011;17300;50.374;8.006;2022-08-24T06:31:09;2.70;;;2.42;;
30519;SDS011;17300;50.374;8.006;2022-08-24T06:33:38;3.08;;;2.65;;
30519;SDS011;17300;50.374;8.006;2022-08-24T06:36:05;2.85;;;2.60;;
30519;SDS011;17300;50.374;8.006;2022-08-24T06:38:32;3.50;;;2.63;;
30519;SDS011;17300;50.374;8.006;2022-08-24T06:40:59;3.50;;;2.58;;
30519;SDS011;17300;50.374;8.006;2022-08-24T06:43:26;2.60;;;2.40;;
30519;SDS011;17300;50.374;8.006;2022-08-24T06:45:53;2.65;;;2.45;;
30519;SDS011;17300;50.374;8.006;2022-08-24T06:48:22;2.53;;;2.33;;
30519;SDS011;17300;50.374;8.006;2022-08-24T06:50:50;3.42;;;2.10;;
30519;SDS011;17300;50.374;8.006;2022-08-24T06:53:17;3.25;;;2.25;;
30519;SDS011;17300;50.374;8.006;2022-08-24T06:55:44;2.80;;;2.60;;
30519;SDS011;17300;50.374;8.006;2022-08-24T06:58:12;4.50;;;2.30;;
30519;SDS011;17300;50.374;8.006;2022-08-24T07:00:39;2.70;;;2.25;;
30519;SDS011;17300;50.374;8.006;2022-08-24T07:03:06;2.50;;;2.28;;
30519;SDS011;17300;50.374;8.006;2022-08-24T07:05:33;2.47;;;2.28;;
30519;SDS011;17300;50.374;8.006;2022-08-24T07:08:01;2.95;;;2.20;;
30519;SDS011;17300;50.374;8.006;2022-08-24T07:10:29;3.63;;;2.67;;
30519;SDS011;17300;50.374;8.006;2022-08-24T07:12:56;2.70;;;2.20;;
30519;SDS011;17300;50.374;8.006;2022-08-24T07:15:23;2.75;;;2.42;;
30519;SDS011;17300;50.374;8.006;2022-08-24T07:17:50;2.72;;;2.20;;
30519;SDS011;17300;50.374;8.006;2022-08-24T07:20:18;3.45;;;2.30;;
30519;SDS011;17300;50.374;8.006;2022-08-24T07:22:45;3.10;;;2.35;;
30519;SDS011;17300;50.374;8.006;2022-08-24T07:25:13;2.30;;;2.10;;
30519;SDS011;17300;50.374;8.006;2022-08-24T07:27:40;2.65;;;2.13;;
30519;SDS011;17300;50.374;8.006;2022-08-24T07:30:07;2.97;;;2.10;;
30519;SDS011;17300;50.374;8.006;2022-08-24T07:32:34;3.13;;;1.98;;
30519;SDS011;17300;50.374;8.006;2022-08-24T07:35:01;4.50;;;2.50;;
30519;SDS011;17300;50.374;8.006;2022-08-24T07:37:28;2.30;;;2.10;;
30519;SDS011;17300;50.374;8.006;2022-08-24T07:39:55;2.72;;;2.13;;
30519;SDS011;17300;50.374;8.006;2022-08-24T07:42:25;2.47;;;2.28;;
30519;SDS011;17300;50.374;8.006;2022-08-24T07:44:52;2.08;;;1.88;;
30519;SDS011;17300;50.374;8.006;2022-08-24T07:47:19;4.47;;;1.98;;
30519;SDS011;17300;50.374;8.006;2022-08-24T07:49:45;2.70;;;2.20;;
30519;SDS011;17300;50.374;8.006;2022-08-24T07:52:13;1.95;;;1.73;;
30519;SDS011;17300;50.374;8.006;2022-08-24T07:54:40;3.42;;;2.10;;
30519;SDS011;17300;50.374;8.006;2022-08-24T07:57:07;2.08;;;1.70;;
30519;SDS011;17300;50.374;8.006;2022-08-24T07:59:35;2.80;;;1.83;;
30519;SDS011;17300;50.374;8.006;2022-08-24T08:02:02;2.22;;;2.00;;
30519;SDS011;17300;50.374;8.006;2022-08-24T08:04:30;2.30;;;1.95;;
30519;SDS011;17300;50.374;8.006;2022-08-24T08:06:57;2.05;;;1.80;;
30519;SDS011;17300;50.374;8.006;2022-08-24T08:09:24;2.42;;;1.80;;
30519;SDS011;17300;50.374;8.006;2022-08-24T08:11:52;2.53;;;2.00;;
30519;SDS011;17300;50.374;8.006;2022-08-24T08:14:18;1.98;;;1.80;;
30519;SDS011;17300;50.374;8.006;2022-08-24T08:16:46;1.80;;;1.70;;
30519;SDS011;17300;50.374;8.006;2022-08-24T08:19:13;1.92;;;1.77;;
30519;SDS011;17300;50.374;8.006;2022-08-24T08:21:41;2.80;;;1.58;;
30519;SDS011;17300;50.374;8.006;2022-08-24T08:24:26;2.60;;;1.55;;
30519;SDS011;17300;50.374;8.006;2022-08-24T08:26:53;1.67;;;1.50;;
30519;SDS011;17300;50.374;8.006;2022-08-24T08:29:21;1.70;;;1.60;;
30519;SDS011;17300;50.374;8.006;2022-08-24T08:31:50;1.77;;;1.50;;
30519;SDS011;17300;50.374;8.006;2022-08-24T08:34:17;1.73;;;1.50;;
30519;SDS011;17300;50.374;8.006;2022-08-24T08:36:45;4.95;;;1.60;;
30519;SDS011;17300;50.374;8.006;2022-08-24T08:39:13;1.90;;;1.33;;
30519;SDS011;17300;50.374;8.006;2022-08-24T08:41:55;1.90;;;1.58;;
30519;SDS011;17300;50.374;8.006;2022-08-24T08:44:59;1.50;;;1.40;;
30519;SDS011;17300;50.374;8.006;2022-08-24T08:47:48;2.35;;;1.23;;
30519;SDS011;17300;50.374;8.006;2022-08-24T08:50:36;4.10;;;2.05;;
30519;SDS011;17300;50.374;8.006;2022-08-24T08:53:20;2.25;;;1.50;;
30519;SDS011;17300;50.374;8.006;2022-08-24T08:56:05;2.03;;;1.30;;
30519;SDS011;17300;50.374;8.006;2022-08-24T08:58:47;1.40;;;1.30;;
30519;SDS011;17300;50.374;8.006;2022-08-24T09:01:23;2.35;;;1.45;;
30519;SDS011;17300;50.374;8.006;2022-08-24T09:04:13;1.90;;;1.50;;
30519;SDS011;17300;50.374;8.006;2022-08-24T09:06:55;2.47;;;1.70;;
30519;SDS011;17300;50.374;8.006;2022-08-24T09:09:41;1.90;;;1.30;;
30519;SDS011;17300;50.374;8.006;2022-08-24T09:12:16;2.08;;;1.50;;
30519;SDS011;17300;50.374;8.006;2022-08-24T09:14:53;1.85;;;1.50;;
30519;SDS011;17300;50.374;8.006;2022-08-24T09:17:36;1.42;;;1.25;;
30519;SDS011;17300;50.374;8.006;2022-08-24T09:20:14;2.60;;;1.50;;
30519;SDS011;17300;50.374;8.006;2022-08-24T09:23:00;2.13;;;1.23;;
30519;SDS011;17300;50.374;8.006;2022-08-24T09:25:35;2.58;;;1.42;;
30519;SDS011;17300;50.374;8.006;2022-08-24T09:28:14;1.20;;;1.10;;
30519;SDS011;17300;50.374;8.006;2022-08-24T09:30:55;1.65;;;1.55;;
30519;SDS011;17300;50.374;8.006;2022-08-24T09:33:35;1.30;;;1.20;;
30519;SDS011;17300;50.374;8.006;2022-08-24T09:36:10;1.48;;;1.38;;
30519;SDS011;17300;50.374;8.006;2022-08-24T09:38:49;2.42;;;1.38;;
30519;SDS011;17300;50.374;8.006;2022-08-24T09:44:41;3.03;;;1.38;;
30519;SDS011;17300;50.374;8.006;2022-08-24T09:47:46;1.77;;;1.30;;
30519;SDS011;17300;50.374;8.006;2022-08-24T09:56:40;1.40;;;1.30;;
30519;SDS011;17300;50.374;8.006;2022-08-24T09:59:20;3.83;;;1.20;;
30519;SDS011;17300;50.374;8.006;2022-08-24T10:02:06;1.85;;;1.25;;
30519;SDS011;17300;50.374;8.006;2022-08-24T10:04:49;2.53;;;1.50;;
30519;SDS011;17300;50.374;8.006;2022-08-24T10:07:22;1.45;;;1.23;;
30519;SDS011;17300;50.374;8.006;2022-08-24T10:10:17;1.30;;;1.20;;
30519;SDS011;17300;50.374;8.006;2022-08-24T10:12:56;1.35;;;1.25;;
30519;SDS011;17300;50.374;8.006;2022-08-24T10:15:33;1.65;;;1.42;;
30519;SDS011;17300;50.374;8.006;2022-08-24T10:18:13;1.52;;;1.42;;
30519;SDS011;17300;50.374;8.006;2022-08-24T10:21:02;1.35;;;1.20;;
30519;SDS011;17300;50.374;8.006;2022-08-24T10:23:40;1.38;;;1.27;;
30519;SDS011;17300;50.374;8.006;2022-08-24T10:26:22;2.15;;;1.30;;
30519;SDS011;17300;50.374;8.006;2022-08-24T10:29:09;1.48;;;1.35;;
30519;SDS011;17300;50.374;8.006;2022-08-24T10:31:50;3.17;;;1.20;;
30519;SDS011;17300;50.374;8.006;2022-08-24T10:34:33;2.72;;;1.30;;
30519;SDS011;17300;50.374;8.006;2022-08-24T10:37:18;2.95;;;1.23;;
30519;SDS011;17300;50.374;8.006;2022-08-24T10:40:11;1.73;;;1.10;;
30519;SDS011;17300;50.374;8.006;2022-08-24T10:42:52;1.45;;;1.35;;
30519;SDS011;17300;50.374;8.006;2022-08-24T10:45:59;1.20;;;1.10;;
30519;SDS011;17300;50.374;8.006;2022-08-24T10:48:58;1.20;;;1.10;;
30519;SDS011;17300;50.374;8.006;2022-08-24T10:51:42;2.17;;;1.38;;
30519;SDS011;17300;50.374;8.006;2022-08-24T10:54:21;1.98;;;1.20;;
30519;SDS011;17300;50.374;8.006;2022-08-24T10:56:51;1.38;;;1.27;;
30519;SDS011;17300;50.374;8.006;2022-08-24T10:59:27;1.35;;;1.23;;
30519;SDS011;17300;50.374;8.006;2022-08-24T11:02:01;1.52;;;1.40;;
30519;SDS011;17300;50.374;8.006;2022-08-24T11:04:31;1.50;;;1.30;;
30519;SDS011;17300;50.374;8.006;2022-08-24T11:07:05;1.40;;;1.30;;
30519;SDS011;17300;50.374;8.006;2022-08-24T11:09:47;1.58;;;1.35;;
30519;SDS011;17300;50.374;8.006;2022-08-24T11:12:20;2.28;;;1.20;;
30519;SDS011;17300;50.374;8.006;2022-08-24T11:14:54;2.63;;;1.35;;
30519;SDS011;17300;50.374;8.006;2022-08-24T11:17:23;2.67;;;1.20;;
30519;SDS011;17300;50.374;8.006;2022-08-24T11:19:52;1.48;;;1.38;;
30519;SDS011;17300;50.374;8.006;2022-08-24T11:22:26;1.40;;;1.30;;
30519;SDS011;17300;50.374;8.006;2022-08-24T11:25:03;2.25;;;1.35;;
30519;SDS011;17300;50.374;8.006;2022-08-24T11:27:35;3.63;;;1.38;;
30519;SDS011;17300;50.374;8.006;2022-08-24T11:30:07;1.30;;;1.20;;
30519;SDS011;17300;50.374;8.006;2022-08-24T11:32:38;2.58;;;1.40;;
30519;SDS011;17300;50.374;8.006;2022-08-24T11:35:14;1.95;;;1.40;;
30519;SDS011;17300;50.374;8.006;2022-08-24T11:37:45;1.50;;;1.40;;
30519;SDS011;17300;50.374;8.006;2022-08-24T11:40:14;1.60;;;1.50;;
30519;SDS011;17300;50.374;8.006;2022-08-24T11:42:46;1.90;;;1.50;;
30519;SDS011;17300;50.374;8.006;2022-08-24T11:45:28;3.13;;;1.35;;
30519;SDS011;17300;50.374;8.006;2022-08-24T11:48:06;1.65;;;1.55;;
30519;SDS011;17300;50.374;8.006;2022-08-24T11:50:41;2.35;;;1.60;;
30519;SDS011;17300;50.374;8.006;2022-08-24T11:53:18;1.70;;;1.60;;
30519;SDS011;17300;50.374;8.006;2022-08-24T11:55:56;2.25;;;1.60;;
30519;SDS011;17300;50.374;8.006;2022-08-24T11:58:34;2.72;;;1.50;;
30519;SDS011;17300;50.374;8.006;2022-08-24T12:01:12;1.52;;;1.42;;
30519;SDS011;17300;50.374;8.006;2022-08-24T12:03:46;2.35;;;1.67;;
30519;SDS011;17300;50.374;8.006;2022-08-24T12:06:26;2.20;;;1.60;;
30519;SDS011;17300;50.374;8.006;2022-08-24T12:09:00;1.70;;;1.60;;
30519;SDS011;17300;50.374;8.006;2022-08-24T12:11:38;1.73;;;1.40;;
30519;SDS011;17300;50.374;8.006;2022-08-24T12:14:15;2.40;;;1.65;;
30519;SDS011;17300;50.374;8.006;2022-08-24T12:16:50;2.05;;;1.58;;
30519;SDS011;17300;50.374;8.006;2022-08-24T12:19:23;1.73;;;1.50;;
30519;SDS011;17300;50.374;8.006;2022-08-24T12:21:54;1.60;;;1.50;;
30519;SDS011;17300;50.374;8.006;2022-08-24T12:24:25;2.00;;;1.63;;
30519;SDS011;17300;50.374;8.006;2022-08-24T12:26:57;1.50;;;1.40;;
30519;SDS011;17300;50.374;8.006;2022-08-24T12:29:29;1.40;;;1.30;;
30519;SDS011;17300;50.374;8.006;2022-08-24T12:32:02;1.48;;;1.38;;
30519;SDS011;17300;50.374;8.006;2022-08-24T12:34:38;2.05;;;1.60;;
30519;SDS011;17300;50.374;8.006;2022-08-24T12:37:16;2.85;;;2.00;;
30519;SDS011;17300;50.374;8.006;2022-08-24T12:39:48;2.15;;;1.67;;
30519;SDS011;17300;50.374;8.006;2022-08-24T12:42:24;2.90;;;1.63;;
30519;SDS011;17300;50.374;8.006;2022-08-24T12:44:58;1.70;;;1.50;;
30519;SDS011;17300;50.374;8.006;2022-08-24T12:47:32;1.50;;;1.40;;
30519;SDS011;17300;50.374;8.006;2022-08-24T12:50:03;1.42;;;1.33;;
30519;SDS011;17300;50.374;8.006;2022-08-24T12:55:56;1.63;;;1.52;;
30519;SDS011;17300;50.374;8.006;2022-08-24T12:58:49;1.52;;;1.40;;
30519;SDS011;17300;50.374;8.006;2022-08-24T13:01:21;2.95;;;1.40;;
30519;SDS011;17300;50.374;8.006;2022-08-24T13:04:02;2.13;;;1.83;;
30519;SDS011;17300;50.374;8.006;2022-08-24T13:06:42;1.65;;;1.40;;
30519;SDS011;17300;50.374;8.006;2022-08-24T13:09:16;1.38;;;1.27;;
30519;SDS011;17300;50.374;8.006;2022-08-24T13:11:54;2.78;;;1.38;;
30519;SDS011;17300;50.374;8.006;2022-08-24T13:14:23;1.85;;;1.40;;
30519;SDS011;17300;50.374;8.006;2022-08-24T13:17:11;1.58;;;1.48;;
30519;SDS011;17300;50.374;8.006;2022-08-24T13:19:41;1.77;;;1.40;;
30519;SDS011;17300;50.374;8.006;2022-08-24T13:25:22;1.83;;;1.50;;
30519;SDS011;17300;50.374;8.006;2022-08-24T13:31:04;4.15;;;1.50;;
30519;SDS011;17300;50.374;8.006;2022-08-24T13:33:40;2.55;;;1.60;;
30519;SDS011;17300;50.374;8.006;2022-08-24T13:39:09;1.50;;;1.40;;
30519;SDS011;17300;50.374;8.006;2022-08-24T13:41:52;1.50;;;1.40;;
30519;SDS011;17300;50.374;8.006;2022-08-24T13:44:39;1.38;;;1.27;;
30519;SDS011;17300;50.374;8.006;2022-08-24T13:47:24;1.75;;;1.40;;
30519;SDS011;17300;50.374;8.006;2022-08-24T13:49:58;1.52;;;1.30;;
30519;SDS011;17300;50.374;8.006;2022-08-24T13:52:36;1.45;;;1.35;;
30519;SDS011;17300;50.374;8.006;2022-08-24T13:55:27;1.30;;;1.20;;
30519;SDS011;17300;50.374;8.006;2022-08-24T13:58:12;1.33;;;1.23;;
30519;SDS011;17300;50.374;8.006;2022-08-24T14:00:46;1.80;;;1.70;;
30519;SDS011;17300;50.374;8.006;2022-08-24T14:03:25;1.30;;;1.20;;
30519;SDS011;17300;50.374;8.006;2022-08-24T14:06:01;1.60;;;1.25;;
30519;SDS011;17300;50.374;8.006;2022-08-24T14:08:49;1.40;;;1.20;;
30519;SDS011;17300;50.374;8.006;2022-08-24T14:11:33;2.50;;;1.45;;
30519;SDS011;17300;50.374;8.006;2022-08-24T14:14:12;1.48;;;1.23;;
30519;SDS011;17300;50.374;8.006;2022-08-24T14:16:50;1.42;;;1.33;;
30519;SDS011;17300;50.374;8.006;2022-08-24T14:19:46;3.05;;;1.10;;
30519;SDS011;17300;50.374;8.006;2022-08-24T14:22:23;2.65;;;1.50;;
30519;SDS011;17300;50.374;8.006;2022-08-24T14:25:02;1.30;;;1.20;;
30519;SDS011;17300;50.374;8.006;2022-08-24T14:27:43;1.30;;;1.20;;
30519;SDS011;17300;50.374;8.006;2022-08-24T14:33:07;1.02;;;1.00;;
30519;SDS011;17300;50.374;8.006;2022-08-24T14:35:55;1.58;;;1.48;;
30519;SDS011;17300;50.374;8.006;2022-08-24T14:38:36;1.90;;;1.30;;
30519;SDS011;17300;50.374;8.006;2022-08-24T14:41:17;1.40;;;1.30;;
30519;SDS011;17300;50.374;8.006;2022-08-24T14:43:55;1.58;;;1.30;;
30519;SDS011;17300;50.374;8.006;2022-08-24T14:46:35;2.42;;;1.25;;
30519;SDS011;17300;50.374;8.006;2022-08-24T14:49:13;1.73;;;1.27;;
30519;SDS011;17300;50.374;8.006;2022-08-24T14:54:55;2.70;;;1.13;;
30519;SDS011;17300;50.374;8.006;2022-08-24T14:57:41;2.25;;;1.13;;
30519;SDS011;17300;50.374;8.006;2022-08-24T15:00:17;2.00;;;1.33;;
30519;SDS011;17300;50.374;8.006;2022-08-24T15:02:54;1.35;;;1.20;;
30519;SDS011;17300;50.374;8.006;2022-08-24T15:05:42;0.90;;;0.90;;
30519;SDS011;17300;50.374;8.006;2022-08-24T15:08:26;2.05;;;1.00;;
30519;SDS011;17300;50.374;8.006;2022-08-24T15:11:00;1.23;;;1.10;;
30519;SDS011;17300;50.374;8.006;2022-08-24T15:13:35;1.10;;;0.98;;
30519;SDS011;17300;50.374;8.006;2022-08-24T15:16:08;1.30;;;1.20;;
30519;SDS011;17300;50.374;8.006;2022-08-24T15:18:39;1.30;;;1.20;;
30519;SDS011;17300;50.374;8.006;2022-08-24T15:24:13;1.17;;;1.08;;
30519;SDS011;17300;50.374;8.006;2022-08-24T15:26:49;1.45;;;1.20;;
30519;SDS011;17300;50.374;8.006;2022-08-24T15:29:25;1.10;;;1.00;;
30519;SDS011;17300;50.374;8.006;2022-08-24T15:32:01;1.27;;;1.02;;
30519;SDS011;17300;50.374;8.006;2022-08-24T15:34:32;1.25;;;1.10;;
30519;SDS011;17300;50.374;8.006;2022-08-24T15:37:00;1.17;;;1.00;;
30519;SDS011;17300;50.374;8.006;2022-08-24T15:39:28;1.00;;;1.00;;
30519;SDS011;17300;50.374;8.006;2022-08-24T15:41:56;1.58;;;1.00;;
30519;SDS011;17300;50.374;8.006;2022-08-24T15:44:24;1.38;;;1.20;;
30519;SDS011;17300;50.374;8.006;2022-08-24T15:46:55;1.30;;;1.20;;
30519;SDS011;17300;50.374;8.006;2022-08-24T15:49:26;1.20;;;1.10;;